sensor_id;sensor_type;location;lat;lon;timestamp;temperature;humidity
80212;DHT22;70434;37.956;23.722;2023-07-08T00:00:15;32.80;34.80
80212;DHT22;70434;37.956;23.722;2023-07-08T00:02:41;32.80;34.50
80212;DHT22;70434;37.956;23.722;2023-07-08T00:05:13;32.80;34.60
80212;DHT22;70434;37.956;23.722;2023-07-08T00:07:40;32.80;34.70
80212;DHT22;70434;37.956;23.722;2023-07-08T00:10:17;32.80;34.60
80212;DHT22;70434;37.956;23.722;2023-07-08T00:12:45;32.70;34.60
80212;DHT22;70434;37.956;23.722;2023-07-08T00:15:13;32.80;34.80
80212;DHT22;70434;37.956;23.722;2023-07-08T00:17:39;32.70;34.80
80212;DHT22;70434;37.956;23.722;2023-07-08T00:20:17;32.70;35.10
80212;DHT22;70434;37.956;23.722;2023-07-08T00:22:44;32.70;35.30
80212;DHT22;70434;37.956;23.722;2023-07-08T00:25:16;32.70;35.30
80212;DHT22;70434;37.956;23.722;2023-07-08T00:27:42;32.70;35.50
80212;DHT22;70434;37.956;23.722;2023-07-08T00:30:18;32.60;35.70
80212;DHT22;70434;37.956;23.722;2023-07-08T00:32:44;32.50;36.00
80212;DHT22;70434;37.956;23.722;2023-07-08T00:35:10;32.40;37.00
80212;DHT22;70434;37.956;23.722;2023-07-08T00:37:36;32.30;37.10
80212;DHT22;70434;37.956;23.722;2023-07-08T00:40:11;32.30;37.40
80212;DHT22;70434;37.956;23.722;2023-07-08T00:42:38;32.30;37.40
80212;DHT22;70434;37.956;23.722;2023-07-08T00:45:29;32.30;37.50
80212;DHT22;70434;37.956;23.722;2023-07-08T00:48:23;32.20;37.60
80212;DHT22;70434;37.956;23.722;2023-07-08T00:50:50;32.30;37.70
80212;DHT22;70434;37.956;23.722;2023-07-08T00:53:33;32.30;37.80
80212;DHT22;70434;37.956;23.722;2023-07-08T00:56:16;32.20;37.70
80212;DHT22;70434;37.956;23.722;2023-07-08T00:58:50;32.20;38.00
80212;DHT22;70434;37.956;23.722;2023-07-08T01:01:18;32.10;38.10
80212;DHT22;70434;37.956;23.722;2023-07-08T01:06:41;32.20;38.00
80212;DHT22;70434;37.956;23.722;2023-07-08T01:09:11;32.30;38.10
80212;DHT22;70434;37.956;23.722;2023-07-08T01:11:40;32.20;38.30
80212;DHT22;70434;37.956;23.722;2023-07-08T01:14:07;32.20;38.30
80212;DHT22;70434;37.956;23.722;2023-07-08T01:16:35;32.20;38.20
80212;DHT22;70434;37.956;23.722;2023-07-08T01:19:02;32.30;38.10
80212;DHT22;70434;37.956;23.722;2023-07-08T01:21:38;32.30;37.80
80212;DHT22;70434;37.956;23.722;2023-07-08T01:24:07;32.30;37.70
80212;DHT22;70434;37.956;23.722;2023-07-08T01:26:37;32.30;37.50
80212;DHT22;70434;37.956;23.722;2023-07-08T01:29:04;32.20;37.30
80212;DHT22;70434;37.956;23.722;2023-07-08T01:31:30;32.20;38.20
80212;DHT22;70434;37.956;23.722;2023-07-08T01:33:56;32.20;37.00
80212;DHT22;70434;37.956;23.722;2023-07-08T01:36:22;32.30;36.70
80212;DHT22;70434;37.956;23.722;2023-07-08T01:38:48;32.20;36.60
80212;DHT22;70434;37.956;23.722;2023-07-08T01:41:15;32.10;36.60
80212;DHT22;70434;37.956;23.722;2023-07-08T01:43:44;32.20;36.70
80212;DHT22;70434;37.956;23.722;2023-07-08T01:46:24;32.20;36.60
80212;DHT22;70434;37.956;23.722;2023-07-08T01:48:54;32.20;36.90
80212;DHT22;70434;37.956;23.722;2023-07-08T01:51:22;32.20;36.90
80212;DHT22;70434;37.956;23.722;2023-07-08T01:53:49;32.20;36.90
80212;DHT22;70434;37.956;23.722;2023-07-08T01:56:15;32.10;37.10
80212;DHT22;70434;37.956;23.722;2023-07-08T01:58:41;32.10;36.90
80212;DHT22;70434;37.956;23.722;2023-07-08T02:01:08;32.10;36.30
80212;DHT22;70434;37.956;23.722;2023-07-08T02:03:34;32.10;36.20
80212;DHT22;70434;37.956;23.722;2023-07-08T02:06:00;32.10;35.90
80212;DHT22;70434;37.956;23.722;2023-07-08T02:08:26;32.10;35.60
80212;DHT22;70434;37.956;23.722;2023-07-08T02:10:54;32.10;35.50
80212;DHT22;70434;37.956;23.722;2023-07-08T02:13:21;32.10;35.30
80212;DHT22;70434;37.956;23.722;2023-07-08T02:15:48;32.10;35.20
80212;DHT22;70434;37.956;23.722;2023-07-08T02:18:14;32.10;35.00
80212;DHT22;70434;37.956;23.722;2023-07-08T02:20:40;32.10;34.80
80212;DHT22;70434;37.956;23.722;2023-07-08T02:23:05;32.10;34.60
80212;DHT22;70434;37.956;23.722;2023-07-08T02:25:31;31.90;34.70
80212;DHT22;70434;37.956;23.722;2023-07-08T02:27:57;32.00;34.80
80212;DHT22;70434;37.956;23.722;2023-07-08T02:30:26;31.90;34.90
80212;DHT22;70434;37.956;23.722;2023-07-08T02:32:52;31.80;35.00
80212;DHT22;70434;37.956;23.722;2023-07-08T02:35:27;31.80;35.10
80212;DHT22;70434;37.956;23.722;2023-07-08T02:37:54;31.70;35.00
80212;DHT22;70434;37.956;23.722;2023-07-08T02:40:21;31.70;35.10
80212;DHT22;70434;37.956;23.722;2023-07-08T02:42:47;31.70;35.40
80212;DHT22;70434;37.956;23.722;2023-07-08T02:45:13;31.60;35.40
80212;DHT22;70434;37.956;23.722;2023-07-08T02:47:39;31.60;35.40
80212;DHT22;70434;37.956;23.722;2023-07-08T02:50:06;31.70;35.40
80212;DHT22;70434;37.956;23.722;2023-07-08T02:52:32;31.70;35.20
80212;DHT22;70434;37.956;23.722;2023-07-08T02:54:58;31.60;35.50
80212;DHT22;70434;37.956;23.722;2023-07-08T02:57:23;31.50;35.80
80212;DHT22;70434;37.956;23.722;2023-07-08T02:59:49;31.40;35.70
80212;DHT22;70434;37.956;23.722;2023-07-08T03:02:15;31.50;35.90
80212;DHT22;70434;37.956;23.722;2023-07-08T03:04:41;31.50;35.90
80212;DHT22;70434;37.956;23.722;2023-07-08T03:07:07;31.50;36.20
80212;DHT22;70434;37.956;23.722;2023-07-08T03:09:37;31.50;36.40
80212;DHT22;70434;37.956;23.722;2023-07-08T03:12:05;31.40;36.50
80212;DHT22;70434;37.956;23.722;2023-07-08T03:14:31;31.40;36.90
80212;DHT22;70434;37.956;23.722;2023-07-08T03:16:57;31.30;37.10
80212;DHT22;70434;37.956;23.722;2023-07-08T03:19:22;31.40;37.10
80212;DHT22;70434;37.956;23.722;2023-07-08T03:21:48;31.40;37.20
80212;DHT22;70434;37.956;23.722;2023-07-08T03:24:14;31.30;37.50
80212;DHT22;70434;37.956;23.722;2023-07-08T03:26:44;31.30;37.70
80212;DHT22;70434;37.956;23.722;2023-07-08T03:29:17;31.20;37.80
80212;DHT22;70434;37.956;23.722;2023-07-08T03:31:45;31.20;38.00
80212;DHT22;70434;37.956;23.722;2023-07-08T03:34:12;31.20;38.10
80212;DHT22;70434;37.956;23.722;2023-07-08T03:36:49;31.20;38.10
80212;DHT22;70434;37.956;23.722;2023-07-08T03:39:20;31.30;38.10
80212;DHT22;70434;37.956;23.722;2023-07-08T03:41:46;31.30;37.80
80212;DHT22;70434;37.956;23.722;2023-07-08T03:44:12;31.30;37.80
80212;DHT22;70434;37.956;23.722;2023-07-08T03:46:38;31.30;39.10
80212;DHT22;70434;37.956;23.722;2023-07-08T03:49:05;31.30;38.10
80212;DHT22;70434;37.956;23.722;2023-07-08T03:51:35;31.30;38.30
80212;DHT22;70434;37.956;23.722;2023-07-08T03:54:02;31.30;38.30
80212;DHT22;70434;37.956;23.722;2023-07-08T03:56:28;31.40;38.30
80212;DHT22;70434;37.956;23.722;2023-07-08T03:58:53;31.50;38.40
80212;DHT22;70434;37.956;23.722;2023-07-08T04:01:21;31.50;38.60
80212;DHT22;70434;37.956;23.722;2023-07-08T04:03:50;31.50;38.70
80212;DHT22;70434;37.956;23.722;2023-07-08T04:06:17;31.50;38.80
80212;DHT22;70434;37.956;23.722;2023-07-08T04:08:42;31.50;38.90
80212;DHT22;70434;37.956;23.722;2023-07-08T04:11:15;31.50;39.20
80212;DHT22;70434;37.956;23.722;2023-07-08T04:13:41;31.50;39.20
80212;DHT22;70434;37.956;23.722;2023-07-08T04:16:07;31.50;39.60
80212;DHT22;70434;37.956;23.722;2023-07-08T04:18:33;31.60;39.80
80212;DHT22;70434;37.956;23.722;2023-07-08T04:20:59;31.60;40.00
80212;DHT22;70434;37.956;23.722;2023-07-08T04:23:25;31.50;39.80
80212;DHT22;70434;37.956;23.722;2023-07-08T04:25:54;31.50;39.80
80212;DHT22;70434;37.956;23.722;2023-07-08T04:28:21;31.50;39.80
80212;DHT22;70434;37.956;23.722;2023-07-08T04:30:47;31.50;39.80
80212;DHT22;70434;37.956;23.722;2023-07-08T04:33:14;31.40;40.00
80212;DHT22;70434;37.956;23.722;2023-07-08T04:35:42;31.30;40.20
80212;DHT22;70434;37.956;23.722;2023-07-08T04:38:18;31.20;40.40
80212;DHT22;70434;37.956;23.722;2023-07-08T04:40:44;31.30;40.30
80212;DHT22;70434;37.956;23.722;2023-07-08T04:43:10;31.40;40.10
80212;DHT22;70434;37.956;23.722;2023-07-08T04:45:38;31.50;40.20
80212;DHT22;70434;37.956;23.722;2023-07-08T04:48:04;31.50;40.00
80212;DHT22;70434;37.956;23.722;2023-07-08T04:50:42;31.60;40.00
80212;DHT22;70434;37.956;23.722;2023-07-08T04:53:08;31.50;40.10
80212;DHT22;70434;37.956;23.722;2023-07-08T04:55:36;31.50;40.10
80212;DHT22;70434;37.956;23.722;2023-07-08T04:58:02;31.50;40.10
80212;DHT22;70434;37.956;23.722;2023-07-08T05:00:28;31.50;40.00
80212;DHT22;70434;37.956;23.722;2023-07-08T05:02:54;31.60;40.20
80212;DHT22;70434;37.956;23.722;2023-07-08T05:05:20;31.70;39.60
80212;DHT22;70434;37.956;23.722;2023-07-08T05:07:46;31.70;39.30
80212;DHT22;70434;37.956;23.722;2023-07-08T05:10:12;31.70;39.20
80212;DHT22;70434;37.956;23.722;2023-07-08T05:12:37;31.80;39.10
80212;DHT22;70434;37.956;23.722;2023-07-08T05:15:03;31.80;39.50
80212;DHT22;70434;37.956;23.722;2023-07-08T05:17:30;31.80;39.30
80212;DHT22;70434;37.956;23.722;2023-07-08T05:19:55;31.80;39.10
80212;DHT22;70434;37.956;23.722;2023-07-08T05:22:24;31.80;39.30
80212;DHT22;70434;37.956;23.722;2023-07-08T05:24:52;31.90;39.40
80212;DHT22;70434;37.956;23.722;2023-07-08T05:27:24;31.90;39.20
80212;DHT22;70434;37.956;23.722;2023-07-08T05:29:50;31.90;38.70
80212;DHT22;70434;37.956;23.722;2023-07-08T05:32:16;31.90;38.30
80212;DHT22;70434;37.956;23.722;2023-07-08T05:34:43;31.90;38.30
80212;DHT22;70434;37.956;23.722;2023-07-08T05:37:09;31.90;38.20
80212;DHT22;70434;37.956;23.722;2023-07-08T05:39:36;31.90;38.30
80212;DHT22;70434;37.956;23.722;2023-07-08T05:42:02;31.90;37.60
80212;DHT22;70434;37.956;23.722;2023-07-08T05:44:28;31.80;36.90
80212;DHT22;70434;37.956;23.722;2023-07-08T05:46:53;31.80;36.80
80212;DHT22;70434;37.956;23.722;2023-07-08T05:49:19;31.80;35.90
80212;DHT22;70434;37.956;23.722;2023-07-08T05:51:45;31.70;36.20
80212;DHT22;70434;37.956;23.722;2023-07-08T05:54:11;31.80;36.00
80212;DHT22;70434;37.956;23.722;2023-07-08T05:56:37;31.70;36.90
80212;DHT22;70434;37.956;23.722;2023-07-08T05:59:03;31.70;35.50
80212;DHT22;70434;37.956;23.722;2023-07-08T06:01:29;31.70;35.70
80212;DHT22;70434;37.956;23.722;2023-07-08T06:03:55;31.70;35.30
80212;DHT22;70434;37.956;23.722;2023-07-08T06:06:25;31.70;34.50
80212;DHT22;70434;37.956;23.722;2023-07-08T06:08:51;31.70;34.90
80212;DHT22;70434;37.956;23.722;2023-07-08T06:11:17;31.80;34.80
80212;DHT22;70434;37.956;23.722;2023-07-08T06:13:42;31.80;34.30
80212;DHT22;70434;37.956;23.722;2023-07-08T06:16:08;31.70;34.70
80212;DHT22;70434;37.956;23.722;2023-07-08T06:18:34;31.70;34.50
80212;DHT22;70434;37.956;23.722;2023-07-08T06:21:00;31.80;34.50
80212;DHT22;70434;37.956;23.722;2023-07-08T06:23:27;31.70;34.70
80212;DHT22;70434;37.956;23.722;2023-07-08T06:25:53;31.80;34.60
80212;DHT22;70434;37.956;23.722;2023-07-08T06:28:20;31.80;34.80
80212;DHT22;70434;37.956;23.722;2023-07-08T06:30:46;31.80;35.00
80212;DHT22;70434;37.956;23.722;2023-07-08T06:33:12;31.90;35.00
80212;DHT22;70434;37.956;23.722;2023-07-08T06:35:39;31.90;34.80
80212;DHT22;70434;37.956;23.722;2023-07-08T06:38:05;31.90;34.80
80212;DHT22;70434;37.956;23.722;2023-07-08T06:40:32;32.00;35.00
80212;DHT22;70434;37.956;23.722;2023-07-08T06:42:57;32.00;34.50
80212;DHT22;70434;37.956;23.722;2023-07-08T06:45:23;32.00;34.40
80212;DHT22;70434;37.956;23.722;2023-07-08T06:47:49;31.90;34.40
80212;DHT22;70434;37.956;23.722;2023-07-08T06:50:15;32.00;34.40
80212;DHT22;70434;37.956;23.722;2023-07-08T06:52:41;31.90;34.80
80212;DHT22;70434;37.956;23.722;2023-07-08T06:55:08;31.90;35.00
80212;DHT22;70434;37.956;23.722;2023-07-08T06:57:35;31.80;35.20
80212;DHT22;70434;37.956;23.722;2023-07-08T07:00:00;31.80;35.00
80212;DHT22;70434;37.956;23.722;2023-07-08T07:02:27;31.90;34.70
80212;DHT22;70434;37.956;23.722;2023-07-08T07:04:53;31.90;34.80
80212;DHT22;70434;37.956;23.722;2023-07-08T07:07:20;31.90;35.10
80212;DHT22;70434;37.956;23.722;2023-07-08T07:09:46;31.90;34.60
80212;DHT22;70434;37.956;23.722;2023-07-08T07:12:12;31.90;34.80
80212;DHT22;70434;37.956;23.722;2023-07-08T07:14:38;32.00;34.80
80212;DHT22;70434;37.956;23.722;2023-07-08T07:17:04;32.00;34.60
80212;DHT22;70434;37.956;23.722;2023-07-08T07:19:29;32.10;34.20
80212;DHT22;70434;37.956;23.722;2023-07-08T07:21:55;32.10;33.80
80212;DHT22;70434;37.956;23.722;2023-07-08T07:24:21;32.20;32.60
80212;DHT22;70434;37.956;23.722;2023-07-08T07:26:46;32.30;32.70
80212;DHT22;70434;37.956;23.722;2023-07-08T07:29:15;32.10;32.00
80212;DHT22;70434;37.956;23.722;2023-07-08T07:31:41;32.00;32.20
80212;DHT22;70434;37.956;23.722;2023-07-08T07:34:07;32.10;31.50
80212;DHT22;70434;37.956;23.722;2023-07-08T07:36:34;32.00;31.20
80212;DHT22;70434;37.956;23.722;2023-07-08T07:39:00;32.10;31.00
80212;DHT22;70434;37.956;23.722;2023-07-08T07:41:26;32.10;31.40
80212;DHT22;70434;37.956;23.722;2023-07-08T07:43:51;32.10;31.70
80212;DHT22;70434;37.956;23.722;2023-07-08T07:46:17;32.20;31.80
80212;DHT22;70434;37.956;23.722;2023-07-08T07:48:43;32.30;31.40
80212;DHT22;70434;37.956;23.722;2023-07-08T07:51:09;32.40;31.20
80212;DHT22;70434;37.956;23.722;2023-07-08T07:53:36;32.40;31.10
80212;DHT22;70434;37.956;23.722;2023-07-08T07:56:03;32.50;30.30
80212;DHT22;70434;37.956;23.722;2023-07-08T07:58:30;32.60;30.20
80212;DHT22;70434;37.956;23.722;2023-07-08T08:00:56;32.40;30.00
80212;DHT22;70434;37.956;23.722;2023-07-08T08:03:22;32.30;30.20
80212;DHT22;70434;37.956;23.722;2023-07-08T08:05:48;32.20;30.00
80212;DHT22;70434;37.956;23.722;2023-07-08T08:08:14;32.30;29.60
80212;DHT22;70434;37.956;23.722;2023-07-08T08:10:40;32.40;29.70
80212;DHT22;70434;37.956;23.722;2023-07-08T08:13:07;32.40;29.90
80212;DHT22;70434;37.956;23.722;2023-07-08T08:15:34;32.40;30.00
80212;DHT22;70434;37.956;23.722;2023-07-08T08:18:00;32.50;29.60
80212;DHT22;70434;37.956;23.722;2023-07-08T08:20:26;32.60;29.50
80212;DHT22;70434;37.956;23.722;2023-07-08T08:22:52;32.70;29.30
80212;DHT22;70434;37.956;23.722;2023-07-08T08:25:19;32.80;29.30
80212;DHT22;70434;37.956;23.722;2023-07-08T08:27:45;32.70;29.20
80212;DHT22;70434;37.956;23.722;2023-07-08T08:30:12;32.70;29.40
80212;DHT22;70434;37.956;23.722;2023-07-08T08:32:38;32.80;29.20
80212;DHT22;70434;37.956;23.722;2023-07-08T08:35:04;32.80;29.00
80212;DHT22;70434;37.956;23.722;2023-07-08T08:37:30;32.90;29.00
80212;DHT22;70434;37.956;23.722;2023-07-08T08:39:56;32.90;29.00
80212;DHT22;70434;37.956;23.722;2023-07-08T08:42:38;33.10;28.80
80212;DHT22;70434;37.956;23.722;2023-07-08T08:45:06;33.10;28.70
80212;DHT22;70434;37.956;23.722;2023-07-08T08:47:40;33.10;28.80
80212;DHT22;70434;37.956;23.722;2023-07-08T08:50:33;33.10;28.80
80212;DHT22;70434;37.956;23.722;2023-07-08T08:53:02;33.20;28.90
80212;DHT22;70434;37.956;23.722;2023-07-08T08:55:29;33.20;29.10
80212;DHT22;70434;37.956;23.722;2023-07-08T09:01:01;33.20;29.50
80212;DHT22;70434;37.956;23.722;2023-07-08T09:03:45;33.30;28.90
80212;DHT22;70434;37.956;23.722;2023-07-08T09:06:19;33.30;29.00
80212;DHT22;70434;37.956;23.722;2023-07-08T09:08:45;33.20;29.10
80212;DHT22;70434;37.956;23.722;2023-07-08T09:11:36;33.30;28.90
80212;DHT22;70434;37.956;23.722;2023-07-08T09:14:03;33.30;29.10
80212;DHT22;70434;37.956;23.722;2023-07-08T09:19:18;33.50;29.60
80212;DHT22;70434;37.956;23.722;2023-07-08T09:22:02;33.70;29.40
80212;DHT22;70434;37.956;23.722;2023-07-08T09:27:07;33.60;29.80
80212;DHT22;70434;37.956;23.722;2023-07-08T09:29:33;33.70;29.90
80212;DHT22;70434;37.956;23.722;2023-07-08T09:32:11;33.80;29.90
80212;DHT22;70434;37.956;23.722;2023-07-08T09:34:45;33.60;30.30
80212;DHT22;70434;37.956;23.722;2023-07-08T09:37:37;33.60;30.50
80212;DHT22;70434;37.956;23.722;2023-07-08T09:43:02;33.90;30.60
80212;DHT22;70434;37.956;23.722;2023-07-08T09:45:29;33.90;30.80
80212;DHT22;70434;37.956;23.722;2023-07-08T09:48:17;33.90;30.70
80212;DHT22;70434;37.956;23.722;2023-07-08T09:50:44;34.00;31.00
80212;DHT22;70434;37.956;23.722;2023-07-08T09:53:13;33.90;30.90
80212;DHT22;70434;37.956;23.722;2023-07-08T09:55:39;33.90;31.20
80212;DHT22;70434;37.956;23.722;2023-07-08T09:58:05;33.90;31.00
80212;DHT22;70434;37.956;23.722;2023-07-08T10:00:39;33.90;31.00
80212;DHT22;70434;37.956;23.722;2023-07-08T10:03:17;34.00;30.60
80212;DHT22;70434;37.956;23.722;2023-07-08T10:05:46;34.00;30.80
80212;DHT22;70434;37.956;23.722;2023-07-08T10:08:21;34.10;30.60
80212;DHT22;70434;37.956;23.722;2023-07-08T10:10:55;34.10;30.60
80212;DHT22;70434;37.956;23.722;2023-07-08T10:13:41;34.10;30.70
80212;DHT22;70434;37.956;23.722;2023-07-08T10:16:15;34.10;30.90
80212;DHT22;70434;37.956;23.722;2023-07-08T10:18:42;34.20;30.50
80212;DHT22;70434;37.956;23.722;2023-07-08T10:21:31;34.20;30.30
80212;DHT22;70434;37.956;23.722;2023-07-08T10:26:37;34.20;30.40
80212;DHT22;70434;37.956;23.722;2023-07-08T10:29:58;34.20;30.20
80212;DHT22;70434;37.956;23.722;2023-07-08T10:37:56;34.00;29.80
80212;DHT22;70434;37.956;23.722;2023-07-08T10:46:16;34.10;30.20
80212;DHT22;70434;37.956;23.722;2023-07-08T11:05:41;34.50;29.40
80212;DHT22;70434;37.956;23.722;2023-07-08T11:08:19;34.80;29.00
80212;DHT22;70434;37.956;23.722;2023-07-08T11:10:50;34.90;28.60
80212;DHT22;70434;37.956;23.722;2023-07-08T11:13:21;34.80;28.20
80212;DHT22;70434;37.956;23.722;2023-07-08T11:15:54;34.80;28.60
80212;DHT22;70434;37.956;23.722;2023-07-08T11:21:12;34.90;28.80
80212;DHT22;70434;37.956;23.722;2023-07-08T11:24:00;34.90;28.70
80212;DHT22;70434;37.956;23.722;2023-07-08T11:26:33;34.90;28.70
80212;DHT22;70434;37.956;23.722;2023-07-08T11:29:05;34.90;28.70
80212;DHT22;70434;37.956;23.722;2023-07-08T11:31:35;35.00;28.80
80212;DHT22;70434;37.956;23.722;2023-07-08T11:34:01;35.20;28.40
80212;DHT22;70434;37.956;23.722;2023-07-08T11:36:29;35.20;28.00
80212;DHT22;70434;37.956;23.722;2023-07-08T11:38:56;35.40;27.80
80212;DHT22;70434;37.956;23.722;2023-07-08T11:41:27;35.50;27.80
80212;DHT22;70434;37.956;23.722;2023-07-08T11:43:58;35.50;27.60
80212;DHT22;70434;37.956;23.722;2023-07-08T11:46:29;35.70;27.30
80212;DHT22;70434;37.956;23.722;2023-07-08T11:49:06;35.70;27.30
80212;DHT22;70434;37.956;23.722;2023-07-08T11:51:39;35.70;27.30
80212;DHT22;70434;37.956;23.722;2023-07-08T11:54:34;35.70;27.70
80212;DHT22;70434;37.956;23.722;2023-07-08T11:57:04;35.70;27.50
80212;DHT22;70434;37.956;23.722;2023-07-08T11:59:33;35.70;27.20
80212;DHT22;70434;37.956;23.722;2023-07-08T12:02:17;35.80;27.00
80212;DHT22;70434;37.956;23.722;2023-07-08T12:07:33;35.60;27.40
80212;DHT22;70434;37.956;23.722;2023-07-08T12:10:17;35.60;27.10
80212;DHT22;70434;37.956;23.722;2023-07-08T12:12:45;35.70;27.00
80212;DHT22;70434;37.956;23.722;2023-07-08T12:15:16;35.80;26.00
80212;DHT22;70434;37.956;23.722;2023-07-08T12:17:45;35.60;26.00
80212;DHT22;70434;37.956;23.722;2023-07-08T12:20:32;35.60;26.70
80212;DHT22;70434;37.956;23.722;2023-07-08T12:22:59;35.70;27.80
80212;DHT22;70434;37.956;23.722;2023-07-08T12:25:33;35.90;26.80
80212;DHT22;70434;37.956;23.722;2023-07-08T12:28:02;36.00;26.20
80212;DHT22;70434;37.956;23.722;2023-07-08T12:30:29;36.10;26.30
80212;DHT22;70434;37.956;23.722;2023-07-08T12:32:56;36.00;26.40
80212;DHT22;70434;37.956;23.722;2023-07-08T12:35:32;35.90;26.70
80212;DHT22;70434;37.956;23.722;2023-07-08T12:38:01;35.80;26.60
80212;DHT22;70434;37.956;23.722;2023-07-08T12:40:28;36.00;26.80
80212;DHT22;70434;37.956;23.722;2023-07-08T12:42:56;36.10;26.60
80212;DHT22;70434;37.956;23.722;2023-07-08T12:45:23;36.30;26.30
80212;DHT22;70434;37.956;23.722;2023-07-08T12:47:51;36.50;25.90
80212;DHT22;70434;37.956;23.722;2023-07-08T12:50:17;36.40;26.10
80212;DHT22;70434;37.956;23.722;2023-07-08T12:52:44;36.40;26.00
80212;DHT22;70434;37.956;23.722;2023-07-08T12:55:12;36.50;26.00
80212;DHT22;70434;37.956;23.722;2023-07-08T12:57:40;36.50;26.10
80212;DHT22;70434;37.956;23.722;2023-07-08T13:00:14;36.70;25.80
80212;DHT22;70434;37.956;23.722;2023-07-08T13:02:43;36.80;25.60
80212;DHT22;70434;37.956;23.722;2023-07-08T13:05:10;36.90;25.10
80212;DHT22;70434;37.956;23.722;2023-07-08T13:07:39;36.90;25.20
80212;DHT22;70434;37.956;23.722;2023-07-08T13:10:13;36.80;25.50
80212;DHT22;70434;37.956;23.722;2023-07-08T13:12:41;36.80;25.40
80212;DHT22;70434;37.956;23.722;2023-07-08T13:15:16;36.90;25.10
80212;DHT22;70434;37.956;23.722;2023-07-08T13:17:43;36.90;25.20
80212;DHT22;70434;37.956;23.722;2023-07-08T13:20:18;36.90;25.10
80212;DHT22;70434;37.956;23.722;2023-07-08T13:22:51;36.90;25.10
80212;DHT22;70434;37.956;23.722;2023-07-08T13:25:29;37.10;25.10
80212;DHT22;70434;37.956;23.722;2023-07-08T13:27:57;37.20;24.60
80212;DHT22;70434;37.956;23.722;2023-07-08T13:30:25;37.30;24.50
80212;DHT22;70434;37.956;23.722;2023-07-08T13:32:53;37.20;24.30
80212;DHT22;70434;37.956;23.722;2023-07-08T13:35:37;37.20;24.30
80212;DHT22;70434;37.956;23.722;2023-07-08T13:38:04;37.30;24.20
80212;DHT22;70434;37.956;23.722;2023-07-08T13:40:30;37.30;24.10
80212;DHT22;70434;37.956;23.722;2023-07-08T13:42:57;37.10;24.10
80212;DHT22;70434;37.956;23.722;2023-07-08T13:45:26;37.10;24.20
80212;DHT22;70434;37.956;23.722;2023-07-08T13:48:13;37.20;24.20
80212;DHT22;70434;37.956;23.722;2023-07-08T13:50:53;37.30;24.00
80212;DHT22;70434;37.956;23.722;2023-07-08T13:53:27;37.40;23.90
80212;DHT22;70434;37.956;23.722;2023-07-08T13:55:58;37.40;23.70
80212;DHT22;70434;37.956;23.722;2023-07-08T13:58:27;37.40;23.80
80212;DHT22;70434;37.956;23.722;2023-07-08T14:00:53;37.60;23.40
80212;DHT22;70434;37.956;23.722;2023-07-08T14:03:20;37.60;23.30
80212;DHT22;70434;37.956;23.722;2023-07-08T14:05:45;37.60;23.40
80212;DHT22;70434;37.956;23.722;2023-07-08T14:08:15;37.60;23.40
80212;DHT22;70434;37.956;23.722;2023-07-08T14:10:43;37.80;23.20
80212;DHT22;70434;37.956;23.722;2023-07-08T14:13:10;37.90;23.10
80212;DHT22;70434;37.956;23.722;2023-07-08T14:15:38;38.00;22.90
80212;DHT22;70434;37.956;23.722;2023-07-08T14:18:04;38.00;23.70
80212;DHT22;70434;37.956;23.722;2023-07-08T14:20:31;38.10;23.00
80212;DHT22;70434;37.956;23.722;2023-07-08T14:22:57;38.00;22.90
80212;DHT22;70434;37.956;23.722;2023-07-08T14:25:23;38.10;22.90
80212;DHT22;70434;37.956;23.722;2023-07-08T14:27:52;38.20;23.00
80212;DHT22;70434;37.956;23.722;2023-07-08T14:30:18;38.20;23.10
80212;DHT22;70434;37.956;23.722;2023-07-08T14:32:44;38.20;23.00
80212;DHT22;70434;37.956;23.722;2023-07-08T14:35:22;38.40;22.80
80212;DHT22;70434;37.956;23.722;2023-07-08T14:37:48;38.40;22.50
80212;DHT22;70434;37.956;23.722;2023-07-08T14:42:40;38.50;21.90
80212;DHT22;70434;37.956;23.722;2023-07-08T14:45:07;38.30;21.90
80212;DHT22;70434;37.956;23.722;2023-07-08T14:47:33;38.30;22.10
80212;DHT22;70434;37.956;23.722;2023-07-08T14:49:59;38.30;21.90
80212;DHT22;70434;37.956;23.722;2023-07-08T14:52:25;38.20;21.90
80212;DHT22;70434;37.956;23.722;2023-07-08T14:54:51;38.30;22.00
80212;DHT22;70434;37.956;23.722;2023-07-08T14:57:17;38.30;21.80
80212;DHT22;70434;37.956;23.722;2023-07-08T14:59:43;38.30;21.30
80212;DHT22;70434;37.956;23.722;2023-07-08T15:02:19;38.30;21.30
80212;DHT22;70434;37.956;23.722;2023-07-08T15:04:46;38.10;21.60
80212;DHT22;70434;37.956;23.722;2023-07-08T15:07:12;38.20;21.50
80212;DHT22;70434;37.956;23.722;2023-07-08T15:09:37;38.30;21.30
80212;DHT22;70434;37.956;23.722;2023-07-08T15:12:04;38.40;21.20
80212;DHT22;70434;37.956;23.722;2023-07-08T15:14:30;38.40;21.00
80212;DHT22;70434;37.956;23.722;2023-07-08T15:16:55;38.30;21.10
80212;DHT22;70434;37.956;23.722;2023-07-08T15:19:21;38.40;21.20
80212;DHT22;70434;37.956;23.722;2023-07-08T15:21:48;38.50;20.80
80212;DHT22;70434;37.956;23.722;2023-07-08T15:24:14;38.70;20.50
80212;DHT22;70434;37.956;23.722;2023-07-08T15:26:47;38.70;20.40
80212;DHT22;70434;37.956;23.722;2023-07-08T15:29:22;38.90;20.30
80212;DHT22;70434;37.956;23.722;2023-07-08T15:31:48;39.00;20.00
80212;DHT22;70434;37.956;23.722;2023-07-08T15:34:16;38.90;19.70
80212;DHT22;70434;37.956;23.722;2023-07-08T15:36:41;38.80;19.90
80212;DHT22;70434;37.956;23.722;2023-07-08T15:39:07;38.70;20.30
80212;DHT22;70434;37.956;23.722;2023-07-08T15:41:34;38.70;20.40
80212;DHT22;70434;37.956;23.722;2023-07-08T15:44:01;38.60;20.50
80212;DHT22;70434;37.956;23.722;2023-07-08T15:46:33;38.70;20.80
80212;DHT22;70434;37.956;23.722;2023-07-08T15:49:00;38.70;20.80
80212;DHT22;70434;37.956;23.722;2023-07-08T15:51:26;38.70;21.10
80212;DHT22;70434;37.956;23.722;2023-07-08T15:53:52;38.80;21.40
80212;DHT22;70434;37.956;23.722;2023-07-08T15:56:19;38.90;21.40
80212;DHT22;70434;37.956;23.722;2023-07-08T15:58:46;39.00;21.50
80212;DHT22;70434;37.956;23.722;2023-07-08T16:01:21;39.00;21.50
80212;DHT22;70434;37.956;23.722;2023-07-08T16:03:48;39.00;21.60
80212;DHT22;70434;37.956;23.722;2023-07-08T16:06:17;39.00;21.50
80212;DHT22;70434;37.956;23.722;2023-07-08T16:08:44;39.00;21.20
80212;DHT22;70434;37.956;23.722;2023-07-08T16:11:20;38.90;21.20
80212;DHT22;70434;37.956;23.722;2023-07-08T16:13:47;38.90;21.20
80212;DHT22;70434;37.956;23.722;2023-07-08T16:16:13;38.90;21.10
80212;DHT22;70434;37.956;23.722;2023-07-08T16:18:39;38.90;21.20